sensor_id;sensor_type;location;lat;lon;timestamp;temperature;humidity
9949;DHT22;5013;51.840;8.276;2023-03-19T00:01:56;9.80;1.00
9949;DHT22;5013;51.840;8.276;2023-03-19T00:04:22;9.90;1.00
9949;DHT22;5013;51.840;8.276;2023-03-19T00:06:49;9.90;1.00
9949;DHT22;5013;51.840;8.276;2023-03-19T00:09:15;10.00;1.00
9949;DHT22;5013;51.840;8.276;2023-03-19T00:11:41;9.80;1.00
9949;DHT22;5013;51.840;8.276;2023-03-19T00:14:06;9.80;1.00
9949;DHT22;5013;51.840;8.276;2023-03-19T00:16:32;9.80;1.00
9949;DHT22;5013;51.840;8.276;2023-03-19T00:18:58;9.80;1.00
9949;DHT22;5013;51.840;8.276;2023-03-19T00:21:24;9.80;1.00
9949;DHT22;5013;51.840;8.276;2023-03-19T00:23:50;9.70;1.00
9949;DHT22;5013;51.840;8.276;2023-03-19T00:26:16;9.70;1.00
9949;DHT22;5013;51.840;8.276;2023-03-19T00:28:42;9.80;1.00
9949;DHT22;5013;51.840;8.276;2023-03-19T00:31:13;9.70;1.00
9949;DHT22;5013;51.840;8.276;2023-03-19T00:33:39;9.80;1.00
9949;DHT22;5013;51.840;8.276;2023-03-19T00:36:06;9.70;1.00
9949;DHT22;5013;51.840;8.276;2023-03-19T00:38:32;9.70;1.00
9949;DHT22;5013;51.840;8.276;2023-03-19T00:40:59;9.70;1.00
9949;DHT22;5013;51.840;8.276;2023-03-19T00:43:25;9.70;1.00
9949;DHT22;5013;51.840;8.276;2023-03-19T00:45:51;9.70;1.00
9949;DHT22;5013;51.840;8.276;2023-03-19T00:48:17;9.70;1.00
9949;DHT22;5013;51.840;8.276;2023-03-19T00:50:43;9.70;1.00
9949;DHT22;5013;51.840;8.276;2023-03-19T00:53:08;9.60;99.90
9949;DHT22;5013;51.840;8.276;2023-03-19T00:55:34;9.30;99.90
9949;DHT22;5013;51.840;8.276;2023-03-19T00:58:00;9.40;1.00
9949;DHT22;5013;51.840;8.276;2023-03-19T01:00:27;9.50;1.00
9949;DHT22;5013;51.840;8.276;2023-03-19T01:02:53;9.50;1.00
9949;DHT22;5013;51.840;8.276;2023-03-19T01:05:19;9.50;1.00
9949;DHT22;5013;51.840;8.276;2023-03-19T01:07:45;9.50;1.00
9949;DHT22;5013;51.840;8.276;2023-03-19T01:10:11;9.30;99.90
9949;DHT22;5013;51.840;8.276;2023-03-19T01:12:37;9.30;1.00
9949;DHT22;5013;51.840;8.276;2023-03-19T01:15:04;9.20;99.90
9949;DHT22;5013;51.840;8.276;2023-03-19T01:17:31;9.10;99.90
9949;DHT22;5013;51.840;8.276;2023-03-19T01:19:56;9.20;1.00
9949;DHT22;5013;51.840;8.276;2023-03-19T01:22:22;9.30;1.00
9949;DHT22;5013;51.840;8.276;2023-03-19T01:24:48;9.40;1.00
9949;DHT22;5013;51.840;8.276;2023-03-19T01:27:13;9.30;1.00
9949;DHT22;5013;51.840;8.276;2023-03-19T01:29:39;9.30;1.00
9949;DHT22;5013;51.840;8.276;2023-03-19T01:32:04;9.20;1.00
9949;DHT22;5013;51.840;8.276;2023-03-19T01:34:30;9.30;1.00
9949;DHT22;5013;51.840;8.276;2023-03-19T01:36:56;9.20;1.00
9949;DHT22;5013;51.840;8.276;2023-03-19T01:39:21;9.40;1.00
9949;DHT22;5013;51.840;8.276;2023-03-19T01:41:47;9.30;1.00
9949;DHT22;5013;51.840;8.276;2023-03-19T01:44:33;9.20;1.00
9949;DHT22;5013;51.840;8.276;2023-03-19T01:47:04;9.30;1.00
9949;DHT22;5013;51.840;8.276;2023-03-19T01:49:32;9.20;1.00
9949;DHT22;5013;51.840;8.276;2023-03-19T01:52:00;9.30;1.00
9949;DHT22;5013;51.840;8.276;2023-03-19T01:54:29;9.10;1.00
9949;DHT22;5013;51.840;8.276;2023-03-19T01:57:02;9.10;1.00
9949;DHT22;5013;51.840;8.276;2023-03-19T01:59:43;9.00;1.00
9949;DHT22;5013;51.840;8.276;2023-03-19T02:02:28;9.10;1.00
9949;DHT22;5013;51.840;8.276;2023-03-19T02:05:11;9.10;1.00
9949;DHT22;5013;51.840;8.276;2023-03-19T02:07:40;9.10;99.90
9949;DHT22;5013;51.840;8.276;2023-03-19T02:10:11;9.10;1.00
9949;DHT22;5013;51.840;8.276;2023-03-19T02:12:37;9.00;1.00
9949;DHT22;5013;51.840;8.276;2023-03-19T02:15:04;9.10;1.00
9949;DHT22;5013;51.840;8.276;2023-03-19T02:17:29;8.90;99.90
9949;DHT22;5013;51.840;8.276;2023-03-19T02:28:12;8.80;1.00
9949;DHT22;5013;51.840;8.276;2023-03-19T02:30:38;8.70;1.00
9949;DHT22;5013;51.840;8.276;2023-03-19T02:33:04;8.70;1.00
9949;DHT22;5013;51.840;8.276;2023-03-19T02:35:32;8.70;1.00
9949;DHT22;5013;51.840;8.276;2023-03-19T02:38:00;8.70;1.00
9949;DHT22;5013;51.840;8.276;2023-03-19T02:40:35;8.80;1.00
9949;DHT22;5013;51.840;8.276;2023-03-19T02:43:01;8.70;1.00
9949;DHT22;5013;51.840;8.276;2023-03-19T02:45:29;8.70;1.00
9949;DHT22;5013;51.840;8.276;2023-03-19T02:47:55;8.70;1.00
9949;DHT22;5013;51.840;8.276;2023-03-19T02:50:21;8.60;1.00
9949;DHT22;5013;51.840;8.276;2023-03-19T02:52:47;8.50;1.00
9949;DHT22;5013;51.840;8.276;2023-03-19T02:55:13;8.50;1.00
9949;DHT22;5013;51.840;8.276;2023-03-19T02:57:38;8.60;1.00
9949;DHT22;5013;51.840;8.276;2023-03-19T03:00:05;8.40;1.00
9949;DHT22;5013;51.840;8.276;2023-03-19T03:02:33;8.50;1.00
9949;DHT22;5013;51.840;8.276;2023-03-19T03:04:59;8.50;19.10
9949;DHT22;5013;51.840;8.276;2023-03-19T03:07:24;8.70;29.60
9949;DHT22;5013;51.840;8.276;2023-03-19T03:09:51;8.80;31.50
9949;DHT22;5013;51.840;8.276;2023-03-19T03:12:17;8.80;1.00
9949;DHT22;5013;51.840;8.276;2023-03-19T03:14:42;8.80;1.00
9949;DHT22;5013;51.840;8.276;2023-03-19T03:17:08;8.80;1.00
9949;DHT22;5013;51.840;8.276;2023-03-19T03:19:34;8.80;1.00
9949;DHT22;5013;51.840;8.276;2023-03-19T03:21:59;8.90;1.00
9949;DHT22;5013;51.840;8.276;2023-03-19T03:24:26;8.70;1.00
9949;DHT22;5013;51.840;8.276;2023-03-19T03:26:52;8.90;7.50
9949;DHT22;5013;51.840;8.276;2023-03-19T03:29:18;8.90;1.00
9949;DHT22;5013;51.840;8.276;2023-03-19T03:31:43;8.90;1.00
9949;DHT22;5013;51.840;8.276;2023-03-19T03:34:09;8.90;1.00
9949;DHT22;5013;51.840;8.276;2023-03-19T03:36:35;9.00;7.90
9949;DHT22;5013;51.840;8.276;2023-03-19T03:39:01;9.10;1.00
9949;DHT22;5013;51.840;8.276;2023-03-19T03:41:26;9.00;1.00
9949;DHT22;5013;51.840;8.276;2023-03-19T03:43:52;8.90;1.00
9949;DHT22;5013;51.840;8.276;2023-03-19T03:46:18;8.90;1.00
9949;DHT22;5013;51.840;8.276;2023-03-19T03:48:43;8.90;1.00
9949;DHT22;5013;51.840;8.276;2023-03-19T03:51:10;8.90;1.00
9949;DHT22;5013;51.840;8.276;2023-03-19T03:53:36;8.80;1.00
9949;DHT22;5013;51.840;8.276;2023-03-19T03:56:01;8.80;1.00
9949;DHT22;5013;51.840;8.276;2023-03-19T03:58:27;8.80;1.00
9949;DHT22;5013;51.840;8.276;2023-03-19T04:00:53;8.80;1.00
9949;DHT22;5013;51.840;8.276;2023-03-19T04:03:19;8.80;1.00
9949;DHT22;5013;51.840;8.276;2023-03-19T04:05:45;8.80;1.00
9949;DHT22;5013;51.840;8.276;2023-03-19T04:08:10;8.70;1.00
9949;DHT22;5013;51.840;8.276;2023-03-19T04:10:41;8.70;1.00
9949;DHT22;5013;51.840;8.276;2023-03-19T04:13:07;8.70;1.00
9949;DHT22;5013;51.840;8.276;2023-03-19T04:15:34;8.60;1.00
9949;DHT22;5013;51.840;8.276;2023-03-19T04:17:59;8.70;1.00
9949;DHT22;5013;51.840;8.276;2023-03-19T04:20:25;8.50;1.00
9949;DHT22;5013;51.840;8.276;2023-03-19T04:22:51;8.40;1.00
9949;DHT22;5013;51.840;8.276;2023-03-19T04:25:17;8.40;1.00
9949;DHT22;5013;51.840;8.276;2023-03-19T04:27:43;8.50;1.00
9949;DHT22;5013;51.840;8.276;2023-03-19T04:30:10;8.50;1.00
9949;DHT22;5013;51.840;8.276;2023-03-19T04:32:36;8.40;1.00
9949;DHT22;5013;51.840;8.276;2023-03-19T04:35:02;8.50;1.00
9949;DHT22;5013;51.840;8.276;2023-03-19T04:37:28;8.50;1.00
9949;DHT22;5013;51.840;8.276;2023-03-19T04:39:54;8.40;1.00
9949;DHT22;5013;51.840;8.276;2023-03-19T04:42:20;8.50;1.00
9949;DHT22;5013;51.840;8.276;2023-03-19T04:44:45;8.50;1.00
9949;DHT22;5013;51.840;8.276;2023-03-19T04:47:11;8.40;1.00
9949;DHT22;5013;51.840;8.276;2023-03-19T04:49:37;8.40;1.00
9949;DHT22;5013;51.840;8.276;2023-03-19T04:52:03;8.40;1.00
9949;DHT22;5013;51.840;8.276;2023-03-19T04:54:29;8.40;1.00
9949;DHT22;5013;51.840;8.276;2023-03-19T04:56:54;8.30;1.00
9949;DHT22;5013;51.840;8.276;2023-03-19T04:59:20;8.30;1.00
9949;DHT22;5013;51.840;8.276;2023-03-19T05:01:46;8.30;99.90
9949;DHT22;5013;51.840;8.276;2023-03-19T05:04:12;8.10;99.90
9949;DHT22;5013;51.840;8.276;2023-03-19T05:06:38;7.90;99.90
9949;DHT22;5013;51.840;8.276;2023-03-19T05:09:05;8.00;1.00
9949;DHT22;5013;51.840;8.276;2023-03-19T05:11:30;8.10;1.00
9949;DHT22;5013;51.840;8.276;2023-03-19T05:13:56;8.00;1.00
9949;DHT22;5013;51.840;8.276;2023-03-19T05:16:22;7.90;1.00
9949;DHT22;5013;51.840;8.276;2023-03-19T05:18:47;7.90;1.00
9949;DHT22;5013;51.840;8.276;2023-03-19T05:21:14;7.80;99.90
9949;DHT22;5013;51.840;8.276;2023-03-19T05:23:40;7.80;1.00
9949;DHT22;5013;51.840;8.276;2023-03-19T05:26:06;7.90;99.90
9949;DHT22;5013;51.840;8.276;2023-03-19T05:28:33;7.90;1.00
9949;DHT22;5013;51.840;8.276;2023-03-19T05:30:59;8.00;1.00
9949;DHT22;5013;51.840;8.276;2023-03-19T05:33:25;8.00;1.00
9949;DHT22;5013;51.840;8.276;2023-03-19T05:35:50;8.10;1.00
9949;DHT22;5013;51.840;8.276;2023-03-19T05:38:16;8.20;99.90
9949;DHT22;5013;51.840;8.276;2023-03-19T05:40:42;8.10;1.00
9949;DHT22;5013;51.840;8.276;2023-03-19T05:43:09;8.20;1.00
9949;DHT22;5013;51.840;8.276;2023-03-19T05:45:35;8.20;1.00
9949;DHT22;5013;51.840;8.276;2023-03-19T05:48:02;8.10;99.90
9949;DHT22;5013;51.840;8.276;2023-03-19T05:50:28;8.20;99.90
9949;DHT22;5013;51.840;8.276;2023-03-19T05:52:54;8.30;1.00
9949;DHT22;5013;51.840;8.276;2023-03-19T05:55:20;8.40;1.00
9949;DHT22;5013;51.840;8.276;2023-03-19T05:57:45;8.40;1.00
9949;DHT22;5013;51.840;8.276;2023-03-19T06:00:12;8.40;1.00
9949;DHT22;5013;51.840;8.276;2023-03-19T06:02:38;8.40;1.00
9949;DHT22;5013;51.840;8.276;2023-03-19T06:05:04;8.50;1.00
9949;DHT22;5013;51.840;8.276;2023-03-19T06:07:30;8.50;99.90
9949;DHT22;5013;51.840;8.276;2023-03-19T06:09:56;8.60;99.90
9949;DHT22;5013;51.840;8.276;2023-03-19T06:12:22;8.60;99.90
9949;DHT22;5013;51.840;8.276;2023-03-19T06:14:48;8.60;99.90
9949;DHT22;5013;51.840;8.276;2023-03-19T06:17:14;8.80;99.90
9949;DHT22;5013;51.840;8.276;2023-03-19T06:19:39;8.70;99.90
9949;DHT22;5013;51.840;8.276;2023-03-19T06:22:05;8.70;99.90
9949;DHT22;5013;51.840;8.276;2023-03-19T06:24:31;8.80;99.90
9949;DHT22;5013;51.840;8.276;2023-03-19T06:26:58;8.90;99.90
9949;DHT22;5013;51.840;8.276;2023-03-19T06:29:24;9.00;99.90
9949;DHT22;5013;51.840;8.276;2023-03-19T06:31:54;9.10;99.90
9949;DHT22;5013;51.840;8.276;2023-03-19T06:34:35;9.10;99.90
9949;DHT22;5013;51.840;8.276;2023-03-19T06:37:00;9.20;99.90
9949;DHT22;5013;51.840;8.276;2023-03-19T06:39:26;9.30;99.90
9949;DHT22;5013;51.840;8.276;2023-03-19T06:41:52;9.30;99.90
9949;DHT22;5013;51.840;8.276;2023-03-19T06:44:18;9.50;99.90
9949;DHT22;5013;51.840;8.276;2023-03-19T06:46:44;9.50;99.90
9949;DHT22;5013;51.840;8.276;2023-03-19T06:49:10;9.60;99.90
9949;DHT22;5013;51.840;8.276;2023-03-19T06:51:35;9.70;99.90
9949;DHT22;5013;51.840;8.276;2023-03-19T06:54:01;9.70;99.90
9949;DHT22;5013;51.840;8.276;2023-03-19T06:56:28;9.80;1.00
9949;DHT22;5013;51.840;8.276;2023-03-19T06:58:53;9.80;1.00
9949;DHT22;5013;51.840;8.276;2023-03-19T07:01:19;9.90;99.90
9949;DHT22;5013;51.840;8.276;2023-03-19T07:03:46;10.00;99.90
9949;DHT22;5013;51.840;8.276;2023-03-19T07:06:12;10.00;99.90
9949;DHT22;5013;51.840;8.276;2023-03-19T07:08:37;10.10;99.90
9949;DHT22;5013;51.840;8.276;2023-03-19T07:11:06;10.20;77.70
9949;DHT22;5013;51.840;8.276;2023-03-19T07:13:32;10.20;99.90
9949;DHT22;5013;51.840;8.276;2023-03-19T07:15:58;10.40;1.00
9949;DHT22;5013;51.840;8.276;2023-03-19T07:18:24;10.40;1.00
9949;DHT22;5013;51.840;8.276;2023-03-19T07:20:50;10.50;1.00
9949;DHT22;5013;51.840;8.276;2023-03-19T07:23:17;10.70;99.90
9949;DHT22;5013;51.840;8.276;2023-03-19T07:25:43;10.80;1.00
9949;DHT22;5013;51.840;8.276;2023-03-19T07:28:09;10.80;1.00
9949;DHT22;5013;51.840;8.276;2023-03-19T07:30:34;10.90;99.90
9949;DHT22;5013;51.840;8.276;2023-03-19T07:33:00;10.90;1.00
9949;DHT22;5013;51.840;8.276;2023-03-19T07:35:26;11.00;99.90
9949;DHT22;5013;51.840;8.276;2023-03-19T07:37:51;11.00;99.90
9949;DHT22;5013;51.840;8.276;2023-03-19T07:40:17;10.90;99.90
9949;DHT22;5013;51.840;8.276;2023-03-19T07:42:42;11.00;99.90
9949;DHT22;5013;51.840;8.276;2023-03-19T07:45:08;11.00;1.00
9949;DHT22;5013;51.840;8.276;2023-03-19T07:47:34;10.90;99.90
9949;DHT22;5013;51.840;8.276;2023-03-19T07:50:00;10.90;1.00
9949;DHT22;5013;51.840;8.276;2023-03-19T07:52:26;10.80;1.00
9949;DHT22;5013;51.840;8.276;2023-03-19T07:54:52;10.90;99.90
9949;DHT22;5013;51.840;8.276;2023-03-19T07:57:18;11.20;99.90
9949;DHT22;5013;51.840;8.276;2023-03-19T07:59:44;11.30;99.90
9949;DHT22;5013;51.840;8.276;2023-03-19T08:02:10;11.60;99.90
9949;DHT22;5013;51.840;8.276;2023-03-19T08:04:36;11.70;1.00
9949;DHT22;5013;51.840;8.276;2023-03-19T08:07:01;12.00;1.00
9949;DHT22;5013;51.840;8.276;2023-03-19T08:09:27;12.20;1.00
9949;DHT22;5013;51.840;8.276;2023-03-19T08:11:53;12.40;1.00
9949;DHT22;5013;51.840;8.276;2023-03-19T08:14:18;12.50;99.90
9949;DHT22;5013;51.840;8.276;2023-03-19T08:16:47;12.40;99.90
9949;DHT22;5013;51.840;8.276;2023-03-19T08:19:13;12.40;99.90
9949;DHT22;5013;51.840;8.276;2023-03-19T08:21:39;12.20;99.90
9949;DHT22;5013;51.840;8.276;2023-03-19T08:24:05;12.20;1.00
9949;DHT22;5013;51.840;8.276;2023-03-19T08:26:31;12.30;1.00
9949;DHT22;5013;51.840;8.276;2023-03-19T08:28:57;12.40;1.00
9949;DHT22;5013;51.840;8.276;2023-03-19T08:31:23;12.40;1.00
9949;DHT22;5013;51.840;8.276;2023-03-19T08:33:49;12.50;1.00
9949;DHT22;5013;51.840;8.276;2023-03-19T08:36:15;12.50;99.90
9949;DHT22;5013;51.840;8.276;2023-03-19T08:38:41;12.60;1.00
9949;DHT22;5013;51.840;8.276;2023-03-19T08:41:07;12.60;99.90
9949;DHT22;5013;51.840;8.276;2023-03-19T08:43:34;12.70;99.90
9949;DHT22;5013;51.840;8.276;2023-03-19T08:46:01;12.90;99.90
9949;DHT22;5013;51.840;8.276;2023-03-19T08:48:27;13.00;99.90
9949;DHT22;5013;51.840;8.276;2023-03-19T08:50:58;13.20;99.90
9949;DHT22;5013;51.840;8.276;2023-03-19T08:53:25;13.20;1.00
9949;DHT22;5013;51.840;8.276;2023-03-19T08:55:56;13.30;99.90
9949;DHT22;5013;51.840;8.276;2023-03-19T08:58:21;13.40;1.00
9949;DHT22;5013;51.840;8.276;2023-03-19T09:00:47;13.60;99.90
9949;DHT22;5013;51.840;8.276;2023-03-19T09:03:15;14.10;1.00
9949;DHT22;5013;51.840;8.276;2023-03-19T09:05:41;14.50;1.00
9949;DHT22;5013;51.840;8.276;2023-03-19T09:08:07;14.90;99.90
9949;DHT22;5013;51.840;8.276;2023-03-19T09:10:33;15.30;99.90
9949;DHT22;5013;51.840;8.276;2023-03-19T09:12:58;15.50;99.90
9949;DHT22;5013;51.840;8.276;2023-03-19T09:15:25;15.40;99.90
9949;DHT22;5013;51.840;8.276;2023-03-19T09:17:50;15.30;99.90
9949;DHT22;5013;51.840;8.276;2023-03-19T09:20:16;15.20;99.90
9949;DHT22;5013;51.840;8.276;2023-03-19T09:22:42;15.00;99.90
9949;DHT22;5013;51.840;8.276;2023-03-19T09:25:08;14.90;99.90
9949;DHT22;5013;51.840;8.276;2023-03-19T09:27:34;15.10;1.00
9949;DHT22;5013;51.840;8.276;2023-03-19T09:29:59;15.20;99.90
9949;DHT22;5013;51.840;8.276;2023-03-19T09:32:25;15.30;99.90
9949;DHT22;5013;51.840;8.276;2023-03-19T09:34:50;15.30;99.90
9949;DHT22;5013;51.840;8.276;2023-03-19T09:37:16;15.30;99.90
9949;DHT22;5013;51.840;8.276;2023-03-19T09:39:41;15.10;1.00
9949;DHT22;5013;51.840;8.276;2023-03-19T09:44:52;15.20;99.90
9949;DHT22;5013;51.840;8.276;2023-03-19T09:47:28;15.20;1.00
9949;DHT22;5013;51.840;8.276;2023-03-19T09:49:59;15.20;1.00
9949;DHT22;5013;51.840;8.276;2023-03-19T09:57:40;15.30;1.00
9949;DHT22;5013;51.840;8.276;2023-03-19T10:00:33;15.40;15.10
9949;DHT22;5013;51.840;8.276;2023-03-19T10:08:50;15.50;1.00
9949;DHT22;5013;51.840;8.276;2023-03-19T10:11:36;15.80;1.00
9949;DHT22;5013;51.840;8.276;2023-03-19T10:16:55;16.10;1.00
9949;DHT22;5013;51.840;8.276;2023-03-19T10:22:49;15.70;99.90
9949;DHT22;5013;51.840;8.276;2023-03-19T10:25:23;15.60;1.00
9949;DHT22;5013;51.840;8.276;2023-03-19T10:27:58;15.50;1.00
9949;DHT22;5013;51.840;8.276;2023-03-19T10:30:24;15.30;1.00
9949;DHT22;5013;51.840;8.276;2023-03-19T10:33:06;15.20;1.00
9949;DHT22;5013;51.840;8.276;2023-03-19T10:35:40;15.10;1.00
9949;DHT22;5013;51.840;8.276;2023-03-19T10:38:40;14.80;99.90
9949;DHT22;5013;51.840;8.276;2023-03-19T10:41:40;14.90;99.90
9949;DHT22;5013;51.840;8.276;2023-03-19T10:44:24;14.80;25.60
9949;DHT22;5013;51.840;8.276;2023-03-19T10:46:51;15.20;99.90
9949;DHT22;5013;51.840;8.276;2023-03-19T10:49:17;15.40;1.00
9949;DHT22;5013;51.840;8.276;2023-03-19T10:51:44;15.60;1.00
9949;DHT22;5013;51.840;8.276;2023-03-19T10:54:22;15.70;1.00
9949;DHT22;5013;51.840;8.276;2023-03-19T10:56:49;15.90;1.00
9949;DHT22;5013;51.840;8.276;2023-03-19T10:59:25;16.00;99.90
9949;DHT22;5013;51.840;8.276;2023-03-19T11:02:00;16.20;99.90
9949;DHT22;5013;51.840;8.276;2023-03-19T11:04:26;16.20;99.90
9949;DHT22;5013;51.840;8.276;2023-03-19T11:06:55;16.00;18.10
9949;DHT22;5013;51.840;8.276;2023-03-19T11:09:35;16.00;99.90
9949;DHT22;5013;51.840;8.276;2023-03-19T11:12:23;16.10;99.90
9949;DHT22;5013;51.840;8.276;2023-03-19T11:14:56;16.40;99.90
9949;DHT22;5013;51.840;8.276;2023-03-19T11:17:38;16.60;1.00
9949;DHT22;5013;51.840;8.276;2023-03-19T11:23:15;16.70;1.00
9949;DHT22;5013;51.840;8.276;2023-03-19T11:25:52;16.60;1.00
9949;DHT22;5013;51.840;8.276;2023-03-19T11:28:20;16.50;99.90
9949;DHT22;5013;51.840;8.276;2023-03-19T11:31:14;16.20;99.90
9949;DHT22;5013;51.840;8.276;2023-03-19T11:45:10;15.20;99.90
9949;DHT22;5013;51.840;8.276;2023-03-19T11:53:02;15.10;1.00
9949;DHT22;5013;51.840;8.276;2023-03-19T12:01:52;15.00;1.00
9949;DHT22;5013;51.840;8.276;2023-03-19T12:07:48;15.30;99.90
9949;DHT22;5013;51.840;8.276;2023-03-19T12:13:24;15.70;38.80
9949;DHT22;5013;51.840;8.276;2023-03-19T12:24:26;15.60;1.00
9949;DHT22;5013;51.840;8.276;2023-03-19T12:29:52;16.10;1.00
9949;DHT22;5013;51.840;8.276;2023-03-19T12:32:58;16.80;99.90
9949;DHT22;5013;51.840;8.276;2023-03-19T12:35:34;17.30;1.00
9949;DHT22;5013;51.840;8.276;2023-03-19T12:38:16;17.80;1.00
9949;DHT22;5013;51.840;8.276;2023-03-19T12:40:58;17.60;99.90
9949;DHT22;5013;51.840;8.276;2023-03-19T12:46:19;17.30;99.90
9949;DHT22;5013;51.840;8.276;2023-03-19T12:49:48;17.30;99.90
9949;DHT22;5013;51.840;8.276;2023-03-19T12:51:58;17.60;99.90
9949;DHT22;5013;51.840;8.276;2023-03-19T13:00:32;17.80;27.50
9949;DHT22;5013;51.840;8.276;2023-03-19T13:08:22;18.00;1.00
9949;DHT22;5013;51.840;8.276;2023-03-19T13:10:51;18.20;1.00
9949;DHT22;5013;51.840;8.276;2023-03-19T13:16:02;18.10;1.00
9949;DHT22;5013;51.840;8.276;2023-03-19T13:18:40;17.80;1.00
9949;DHT22;5013;51.840;8.276;2023-03-19T13:21:31;17.70;1.00
9949;DHT22;5013;51.840;8.276;2023-03-19T13:26:51;17.80;1.00
9949;DHT22;5013;51.840;8.276;2023-03-19T13:29:23;17.40;99.90
9949;DHT22;5013;51.840;8.276;2023-03-19T13:31:50;17.20;99.90
9949;DHT22;5013;51.840;8.276;2023-03-19T13:34:20;17.20;1.00
9949;DHT22;5013;51.840;8.276;2023-03-19T13:39:36;17.10;1.00
9949;DHT22;5013;51.840;8.276;2023-03-19T13:44:41;16.80;99.90
9949;DHT22;5013;51.840;8.276;2023-03-19T13:47:38;16.70;1.00
9949;DHT22;5013;51.840;8.276;2023-03-19T13:50:48;16.70;1.00
9949;DHT22;5013;51.840;8.276;2023-03-19T13:53:32;16.80;1.00
9949;DHT22;5013;51.840;8.276;2023-03-19T13:55:58;16.60;1.00
9949;DHT22;5013;51.840;8.276;2023-03-19T13:58:43;16.40;96.50
9949;DHT22;5013;51.840;8.276;2023-03-19T14:06:38;16.40;1.00
9949;DHT22;5013;51.840;8.276;2023-03-19T14:09:27;16.40;1.00
9949;DHT22;5013;51.840;8.276;2023-03-19T14:11:53;16.40;1.00
9949;DHT22;5013;51.840;8.276;2023-03-19T14:14:21;16.30;1.00
9949;DHT22;5013;51.840;8.276;2023-03-19T14:16:48;16.40;1.00
9949;DHT22;5013;51.840;8.276;2023-03-19T14:19:18;16.40;1.00
9949;DHT22;5013;51.840;8.276;2023-03-19T14:22:01;16.40;1.00
9949;DHT22;5013;51.840;8.276;2023-03-19T14:24:39;16.30;1.00
9949;DHT22;5013;51.840;8.276;2023-03-19T14:27:31;16.30;1.00
9949;DHT22;5013;51.840;8.276;2023-03-19T14:30:10;16.40;1.00
9949;DHT22;5013;51.840;8.276;2023-03-19T14:32:37;16.30;1.00
9949;DHT22;5013;51.840;8.276;2023-03-19T14:35:07;16.20;1.00
9949;DHT22;5013;51.840;8.276;2023-03-19T14:40:10;15.90;1.00
9949;DHT22;5013;51.840;8.276;2023-03-19T14:50:34;15.60;74.40
9949;DHT22;5013;51.840;8.276;2023-03-19T14:53:18;15.60;99.90
9949;DHT22;5013;51.840;8.276;2023-03-19T14:55:50;15.60;99.90
9949;DHT22;5013;51.840;8.276;2023-03-19T14:58:18;15.50;99.90
9949;DHT22;5013;51.840;8.276;2023-03-19T15:00:48;15.40;99.90
9949;DHT22;5013;51.840;8.276;2023-03-19T15:05:59;15.20;1.00
9949;DHT22;5013;51.840;8.276;2023-03-19T15:08:25;15.20;1.00
9949;DHT22;5013;51.840;8.276;2023-03-19T15:19:15;15.00;1.00
9949;DHT22;5013;51.840;8.276;2023-03-19T15:21:43;15.10;1.00
9949;DHT22;5013;51.840;8.276;2023-03-19T15:24:15;15.00;19.50
9949;DHT22;5013;51.840;8.276;2023-03-19T15:26:42;15.00;4.50
9949;DHT22;5013;51.840;8.276;2023-03-19T15:29:08;14.90;99.90
9949;DHT22;5013;51.840;8.276;2023-03-19T15:31:43;14.90;68.30
9949;DHT22;5013;51.840;8.276;2023-03-19T15:34:26;14.80;99.90
9949;DHT22;5013;51.840;8.276;2023-03-19T15:37:12;14.80;51.20
9949;DHT22;5013;51.840;8.276;2023-03-19T15:39:48;14.80;99.90
9949;DHT22;5013;51.840;8.276;2023-03-19T15:42:15;14.70;99.90
9949;DHT22;5013;51.840;8.276;2023-03-19T15:44:48;14.70;1.00
9949;DHT22;5013;51.840;8.276;2023-03-19T15:47:19;14.70;99.90
9949;DHT22;5013;51.840;8.276;2023-03-19T15:49:58;14.70;1.00
9949;DHT22;5013;51.840;8.276;2023-03-19T15:52:26;14.70;1.00
9949;DHT22;5013;51.840;8.276;2023-03-19T15:54:55;14.60;1.00
9949;DHT22;5013;51.840;8.276;2023-03-19T15:57:22;14.60;1.00
9949;DHT22;5013;51.840;8.276;2023-03-19T15:59:54;14.60;99.90
9949;DHT22;5013;51.840;8.276;2023-03-19T16:02:30;14.60;99.90
9949;DHT22;5013;51.840;8.276;2023-03-19T16:04:56;14.60;99.90
9949;DHT22;5013;51.840;8.276;2023-03-19T16:09:56;14.50;1.00
9949;DHT22;5013;51.840;8.276;2023-03-19T16:12:38;14.50;99.90
9949;DHT22;5013;51.840;8.276;2023-03-19T16:20:58;14.50;99.90
9949;DHT22;5013;51.840;8.276;2023-03-19T16:23:31;14.40;99.90
9949;DHT22;5013;51.840;8.276;2023-03-19T16:26:10;14.50;99.90
9949;DHT22;5013;51.840;8.276;2023-03-19T16:28:42;14.60;1.00
9949;DHT22;5013;51.840;8.276;2023-03-19T16:31:40;14.50;1.00
9949;DHT22;5013;51.840;8.276;2023-03-19T16:34:24;14.50;1.00
9949;DHT22;5013;51.840;8.276;2023-03-19T16:36:52;14.50;99.90
9949;DHT22;5013;51.840;8.276;2023-03-19T16:39:33;14.50;1.00
9949;DHT22;5013;51.840;8.276;2023-03-19T16:44:42;14.40;99.90
9949;DHT22;5013;51.840;8.276;2023-03-19T16:47:12;14.30;99.90
9949;DHT22;5013;51.840;8.276;2023-03-19T16:49:38;14.30;99.90
9949;DHT22;5013;51.840;8.276;2023-03-19T16:52:05;14.30;99.90
9949;DHT22;5013;51.840;8.276;2023-03-19T16:54:31;14.30;99.90
9949;DHT22;5013;51.840;8.276;2023-03-19T16:56:57;14.30;99.90
9949;DHT22;5013;51.840;8.276;2023-03-19T16:59:27;14.20;99.90
9949;DHT22;5013;51.840;8.276;2023-03-19T17:01:53;14.20;97.50
9949;DHT22;5013;51.840;8.276;2023-03-19T17:04:19;14.20;99.90
9949;DHT22;5013;51.840;8.276;2023-03-19T17:06:44;14.20;1.00
9949;DHT22;5013;51.840;8.276;2023-03-19T17:09:10;14.20;99.90
9949;DHT22;5013;51.840;8.276;2023-03-19T17:11:38;14.20;99.90
9949;DHT22;5013;51.840;8.276;2023-03-19T17:14:06;14.10;1.00
9949;DHT22;5013;51.840;8.276;2023-03-19T17:16:32;14.10;1.00
9949;DHT22;5013;51.840;8.276;2023-03-19T17:18:58;14.10;1.00
9949;DHT22;5013;51.840;8.276;2023-03-19T17:21:29;14.10;1.00
9949;DHT22;5013;51.840;8.276;2023-03-19T17:23:56;14.10;1.00
9949;DHT22;5013;51.840;8.276;2023-03-19T17:26:24;14.10;99.90
9949;DHT22;5013;51.840;8.276;2023-03-19T17:28:50;14.00;99.90
9949;DHT22;5013;51.840;8.276;2023-03-19T17:33:51;13.70;1.00
9949;DHT22;5013;51.840;8.276;2023-03-19T17:36:20;13.70;1.00
9949;DHT22;5013;51.840;8.276;2023-03-19T17:38:45;13.60;1.00
9949;DHT22;5013;51.840;8.276;2023-03-19T17:41:14;13.60;1.00
9949;DHT22;5013;51.840;8.276;2023-03-19T17:43:39;13.60;1.00
9949;DHT22;5013;51.840;8.276;2023-03-19T17:46:05;13.60;1.00
9949;DHT22;5013;51.840;8.276;2023-03-19T17:48:31;13.60;1.00
9949;DHT22;5013;51.840;8.276;2023-03-19T17:50:59;13.60;1.00
9949;DHT22;5013;51.840;8.276;2023-03-19T17:53:25;13.70;1.00
9949;DHT22;5013;51.840;8.276;2023-03-19T17:55:51;13.60;1.00
9949;DHT22;5013;51.840;8.276;2023-03-19T17:58:19;13.60;1.00
9949;DHT22;5013;51.840;8.276;2023-03-19T18:00:46;13.50;1.00
9949;DHT22;5013;51.840;8.276;2023-03-19T18:03:15;13.50;1.00
9949;DHT22;5013;51.840;8.276;2023-03-19T18:05:41;13.50;1.00
9949;DHT22;5013;51.840;8.276;2023-03-19T18:08:12;13.50;1.00
9949;DHT22;5013;51.840;8.276;2023-03-19T18:10:38;13.40;1.00
9949;DHT22;5013;51.840;8.276;2023-03-19T18:13:04;13.30;99.90
9949;DHT22;5013;51.840;8.276;2023-03-19T18:15:30;13.30;99.90
9949;DHT22;5013;51.840;8.276;2023-03-19T18:17:59;13.30;99.90
9949;DHT22;5013;51.840;8.276;2023-03-19T18:20:30;13.30;92.50
9949;DHT22;5013;51.840;8.276;2023-03-19T18:22:56;13.30;99.90
9949;DHT22;5013;51.840;8.276;2023-03-19T18:25:24;13.30;99.90
9949;DHT22;5013;51.840;8.276;2023-03-19T18:27:51;13.20;99.90
9949;DHT22;5013;51.840;8.276;2023-03-19T18:30:19;13.20;99.90
9949;DHT22;5013;51.840;8.276;2023-03-19T18:32:48;13.20;99.90
9949;DHT22;5013;51.840;8.276;2023-03-19T18:35:16;13.20;1.00
9949;DHT22;5013;51.840;8.276;2023-03-19T18:37:45;13.10;1.00
9949;DHT22;5013;51.840;8.276;2023-03-19T18:40:14;13.20;1.00
9949;DHT22;5013;51.840;8.276;2023-03-19T18:42:40;13.20;1.00
9949;DHT22;5013;51.840;8.276;2023-03-19T18:45:06;13.10;1.00
9949;DHT22;5013;51.840;8.276;2023-03-19T18:47:31;13.10;1.00
9949;DHT22;5013;51.840;8.276;2023-03-19T18:49:57;13.10;1.00